Time;durP1;ratioP1;P1;durP2;ratioP2;P2;SDS_P1;SDS_P2;PMS_P1;PMS_P2;Temp;Humidity;BMP_temperature;BMP_pressure;BME280_temperature;BME280_humidity;BME280_pressure;Samples;Min_cycle;Max_cycle;Signal;HPM_P1;HPM_P2
2022/06/01 00:00:30;;;;;;;;;4.00;4.00;;;;;14.85;48.50;100920.03;5110522;27;45155;-85
2022/06/01 00:02:57;;;;;;;;;4.00;3.75;;;;;15.22;48.81;100990.50;5122084;27;45689;-83
2022/06/01 00:05:23;;;;;;;;;3.50;3.00;;;;;14.67;49.47;100915.25;5128539;27;45655;-80
2022/06/01 00:07:49;;;;;;;;;3.75;3.75;;;;;14.58;49.64;100909.81;5109969;27;45257;-84
2022/06/01 00:10:15;;;;;;;;;2.75;2.75;;;;;14.63;49.36;100934.59;5113882;27;45229;-82
2022/06/01 00:12:41;;;;;;;;;4.00;3.00;;;;;15.25;49.58;101039.97;5108708;27;45912;-86
2022/06/01 00:15:07;;;;;;;;;3.00;3.00;;;;;15.01;49.86;100991.81;5109840;27;45728;-83
2022/06/01 00:17:33;;;;;;;;;3.75;3.00;;;;;15.08;49.71;101020.19;5109521;27;45157;-85
2022/06/01 00:19:58;;;;;;;;;3.00;3.00;;;;;14.50;50.00;100921.97;5109066;27;45151;-84
2022/06/01 00:22:24;;;;;;;;;4.00;3.50;;;;;14.92;50.35;101001.31;5117001;27;45636;-81
2022/06/01 00:24:50;;;;;;;;;3.75;3.25;;;;;15.05;50.51;101036.91;5127113;27;45181;-85
2022/06/01 00:27:17;;;;;;;;;4.00;3.00;;;;;14.77;50.35;100989.53;5109460;27;44978;-85
2022/06/01 00:29:43;;;;;;;;;4.00;3.00;;;;;14.88;50.53;101019.78;5109805;27;45138;-85
2022/06/01 00:32:11;;;;;;;;;5.00;4.00;;;;;14.65;50.71;100975.19;5109874;27;45450;-87
2022/06/01 00:34:37;;;;;;;;;3.75;3.75;;;;;14.54;50.87;100968.78;5109513;27;45723;-86
2022/06/01 00:37:03;;;;;;;;;3.50;3.50;;;;;14.67;51.02;101005.19;5109478;27;44992;-84
2022/06/01 00:39:28;;;;;;;;;3.00;3.00;;;;;14.48;51.06;100983.59;5109069;27;45222;-84
2022/06/01 00:41:54;;;;;;;;;3.00;3.00;;;;;14.43;51.19;100979.09;5109123;27;45952;-87
2022/06/01 00:44:19;;;;;;;;;4.50;4.25;;;;;14.54;50.95;100997.88;5113546;27;45362;-86
2022/06/01 00:46:45;;;;;;;;;3.75;3.25;;;;;14.29;51.63;100967.31;5127752;27;45071;-82
2022/06/01 00:49:18;;;;;;;;;4.25;4.25;;;;;14.22;51.35;100953.91;5129370;27;47265;-86
2022/06/01 00:51:44;;;;;;;;;3.00;3.00;;;;;14.33;51.84;100985.00;5129954;27;45240;-86
2022/06/01 00:54:12;;;;;;;;;3.00;3.00;;;;;14.60;52.07;101039.44;5129716;27;45438;-84
2022/06/01 00:56:44;;;;;;;;;4.00;4.00;;;;;14.39;52.03;101008.97;5129353;27;45086;-86
2022/06/01 00:59:15;;;;;;;;;4.00;3.25;;;;;14.18;52.14;100979.34;5111678;27;45228;-83
2022/06/01 01:01:42;;;;;;;;;3.25;3.00;;;;;14.47;51.80;101038.22;5124023;27;45921;-86
2022/06/01 01:04:07;;;;;;;;;3.00;3.00;;;;;14.36;51.98;101008.88;5129213;27;45299;-84
2022/06/01 01:06:36;;;;;;;;;3.50;3.50;;;;;14.40;52.38;101018.69;5127877;27;45126;-81
2022/06/01 01:09:03;;;;;;;;;5.00;5.00;;;;;14.13;51.81;100973.97;5128005;27;45295;-83
2022/06/01 01:11:36;;;;;;;;;3.25;3.25;;;;;14.34;51.80;100993.84;5112918;27;45580;-85
2022/06/01 01:14:06;;;;;;;;;4.00;4.00;;;;;14.57;52.09;101040.25;5121659;27;45256;-85
2022/06/01 01:16:32;;;;;;;;;5.00;4.25;;;;;14.32;52.32;100987.63;5108568;27;45074;-84
2022/06/01 01:18:57;;;;;;;;;5.00;5.00;;;;;14.57;51.75;101031.41;5108842;27;45453;-86
2022/06/01 01:21:57;;;;;;;;;3.25;3.25;;;;;14.57;52.09;101039.34;5108629;27;45704;-83
2022/06/01 01:24:38;;;;;;;;;3.25;3.00;;;;;14.26;52.04;100993.66;5109914;27;45193;-86
2022/06/01 01:27:04;;;;;;;;;3.75;3.75;;;;;14.28;52.36;101006.91;5091650;27;45131;-85
2022/06/01 01:29:41;;;;;;;;;4.75;4.75;;;;;14.40;52.73;101028.38;5113257;27;45317;-86
2022/06/01 01:32:09;;;;;;;;;4.00;4.00;;;;;14.33;52.95;101029.94;5115944;27;45260;-81
2022/06/01 01:34:40;;;;;;;;;3.75;3.50;;;;;14.02;52.71;100983.38;5123326;27;45527;-86
2022/06/01 01:37:11;;;;;;;;;4.00;4.00;;;;;14.13;52.90;101005.69;5112473;27;45090;-86
2022/06/01 01:39:37;;;;;;;;;4.00;3.75;;;;;14.22;52.97;101031.44;5093285;27;45131;-87
2022/06/01 01:42:04;;;;;;;;;3.50;3.00;;;;;14.25;52.97;101041.22;5093775;27;47354;-84
2022/06/01 01:44:34;;;;;;;;;4.00;3.25;;;;;14.20;53.29;101043.75;5100488;27;45820;-82
2022/06/01 01:47:01;;;;;;;;;3.00;3.00;;;;;14.03;53.51;101023.91;5130923;27;45150;-86
2022/06/01 01:49:30;;;;;;;;;3.00;3.00;;;;;14.04;53.50;101023.97;5113275;27;45023;-85
2022/06/01 01:52:00;;;;;;;;;4.75;4.00;;;;;14.02;53.76;101027.44;5113601;27;47591;-84
2022/06/01 01:54:35;;;;;;;;;3.75;3.75;;;;;14.04;53.58;101036.28;5132158;27;45532;-86
2022/06/01 01:57:19;;;;;;;;;2.75;2.00;;;;;13.81;53.89;101004.00;5127436;27;45045;-82
2022/06/01 02:00:04;;;;;;;;;4.00;3.00;;;;;13.85;53.92;101012.06;5111708;27;45679;-85
2022/06/01 02:02:48;;;;;;;;;4.00;4.00;;;;;13.86;53.99;101024.41;5111645;27;45892;-82
2022/06/01 02:08:46;;;;;;;;;5.00;4.00;;;;;13.72;53.62;100999.38;5114572;27;45196;-87
2022/06/01 02:14:55;;;;;;;;;4.00;4.00;;;;;13.59;53.80;100952.34;5115527;27;45476;-83
2022/06/01 02:17:27;;;;;;;;;3.00;3.00;;;;;13.92;53.86;101013.97;5111268;27;45638;-84
2022/06/01 02:19:57;;;;;;;;;4.00;3.00;;;;;13.72;53.89;100966.78;5111024;27;45096;-85
2022/06/01 02:22:23;;;;;;;;;4.75;3.50;;;;;13.83;54.22;100997.00;5111366;27;45673;-86
2022/06/01 02:24:49;;;;;;;;;3.50;3.00;;;;;13.61;54.21;100966.50;5113273;27;45289;-86
2022/06/01 02:27:16;;;;;;;;;4.00;4.00;;;;;13.72;54.22;100980.00;5111395;27;45001;-85
2022/06/01 02:29:47;;;;;;;;;3.75;3.75;;;;;13.68;53.93;100986.94;5111475;27;45104;-84
2022/06/01 02:32:16;;;;;;;;;2.25;2.25;;;;;13.59;54.21;100978.78;5111430;27;45114;-85
2022/06/01 02:34:44;;;;;;;;;4.00;4.00;;;;;13.57;54.63;100986.66;5120132;27;45327;-81
2022/06/01 02:37:12;;;;;;;;;5.00;5.00;;;;;13.71;54.19;101008.16;5112423;27;45886;-82
2022/06/01 02:39:41;;;;;;;;;4.00;4.00;;;;;13.61;54.24;100992.94;5110860;27;45276;-85
2022/06/01 02:42:26;;;;;;;;;3.75;3.75;;;;;13.68;54.70;101003.66;5111475;27;45191;-84
2022/06/01 02:45:04;;;;;;;;;4.00;4.00;;;;;13.56;54.48;100994.56;5111578;27;45824;-82
2022/06/01 02:47:33;;;;;;;;;3.75;3.25;;;;;13.24;54.73;100933.84;5111143;27;45289;-84
2022/06/01 02:49:59;;;;;;;;;4.00;4.00;;;;;13.27;54.76;100946.25;5128308;27;45381;-86
2022/06/01 02:52:27;;;;;;;;;3.50;3.50;;;;;13.32;54.70;100965.75;5131322;27;45217;-82
2022/06/01 02:54:52;;;;;;;;;3.00;3.00;;;;;13.47;55.13;100997.84;5131042;27;45311;-84
2022/06/01 02:57:18;;;;;;;;;4.25;4.25;;;;;13.02;55.07;100924.44;5127236;27;45382;-81
2022/06/01 02:59:44;;;;;;;;;5.00;3.75;;;;;13.02;54.98;100928.81;5130996;27;45515;-83
2022/06/01 03:02:10;;;;;;;;;4.00;4.00;;;;;13.25;55.43;100975.25;5131400;27;45091;-86
2022/06/01 03:04:37;;;;;;;;;3.00;3.00;;;;;12.88;55.63;100924.06;5131213;27;45198;-82
2022/06/01 03:07:03;;;;;;;;;3.00;3.00;;;;;13.22;55.71;100998.03;5131422;27;45473;-82
2022/06/01 03:09:29;;;;;;;;;2.00;2.00;;;;;13.25;55.75;100999.00;5129422;27;45092;-87
2022/06/01 03:11:54;;;;;;;;;5.00;4.00;;;;;12.89;55.84;100946.03;5110392;27;45029;-83
2022/06/01 03:14:20;;;;;;;;;4.00;4.00;;;;;12.90;55.89;100956.63;5111543;27;45440;-84
2022/06/01 03:16:45;;;;;;;;;4.50;4.00;;;;;12.87;56.07;100961.84;5124207;27;45114;-80
2022/06/01 03:19:11;;;;;;;;;5.00;3.50;;;;;12.95;56.39;100966.41;5131354;27;45127;-80
2022/06/01 03:21:37;;;;;;;;;3.75;3.75;;;;;13.04;56.17;100986.06;5131111;27;45222;-84
2022/06/01 03:24:05;;;;;;;;;5.50;5.00;;;;;12.92;56.14;100961.97;5112283;27;47440;-83
2022/06/01 03:26:31;;;;;;;;;4.00;4.00;;;;;13.05;56.06;100993.13;5129871;27;45282;-82
2022/06/01 03:28:56;;;;;;;;;4.00;3.00;;;;;12.97;56.32;100984.09;5131149;27;45128;-82
2022/06/01 03:31:21;;;;;;;;;4.00;3.75;;;;;12.78;56.37;100956.28;5124886;27;45085;-83
2022/06/01 03:33:47;;;;;;;;;4.00;4.00;;;;;12.72;56.32;100958.75;5109948;27;45893;-84
2022/06/01 03:36:12;;;;;;;;;5.00;5.00;;;;;12.82;56.40;100976.63;5119741;27;45135;-85
2022/06/01 03:38:38;;;;;;;;;6.00;4.00;;;;;12.58;56.58;100945.16;5111647;27;45238;-84
2022/06/01 03:41:04;;;;;;;;;3.33;3.00;;;;;12.69;56.75;100952.50;5131352;27;45038;-85
2022/06/01 03:43:30;;;;;;;;;4.00;4.00;;;;;12.67;56.21;100960.38;5131069;27;45272;-85
2022/06/01 03:45:56;;;;;;;;;5.00;4.00;;;;;12.90;56.37;101001.47;5127272;27;45740;-80
2022/06/01 03:48:32;;;;;;;;;4.00;4.00;;;;;12.88;55.97;100990.00;5130087;27;45314;-85
2022/06/01 03:50:58;;;;;;;;;5.00;5.00;;;;;13.09;56.05;101024.00;5110346;27;45347;-85
2022/06/01 03:53:25;;;;;;;;;4.00;4.00;;;;;12.82;56.03;100971.38;5109660;27;45975;-80
2022/06/01 03:55:52;;;;;;;;;4.50;4.50;;;;;12.76;56.28;100955.38;5109934;27;45916;-79
2022/06/01 03:58:21;;;;;;;;;4.00;4.00;;;;;13.13;56.30;101017.09;5110367;27;45045;-84
2022/06/01 04:00:47;;;;;;;;;3.50;3.50;;;;;13.05;56.19;101005.41;5108436;27;45403;-84
2022/06/01 04:03:13;;;;;;;;;4.00;4.00;;;;;13.11;56.36;101018.81;5110158;27;45994;-85
2022/06/01 04:05:39;;;;;;;;;4.00;4.00;;;;;13.03;56.10;101007.13;5119371;27;45474;-83
2022/06/01 04:08:06;;;;;;;;;3.75;3.75;;;;;12.88;56.12;100984.72;5110438;27;45158;-84
2022/06/01 04:10:33;;;;;;;;;4.00;4.00;;;;;12.85;56.63;100981.09;5120605;27;45610;-82
2022/06/01 04:12:58;;;;;;;;;3.25;3.00;;;;;12.94;56.09;100989.28;5125107;27;46012;-83
2022/06/01 04:15:24;;;;;;;;;4.00;4.00;;;;;13.11;55.91;101024.09;5113212;27;45114;-83
2022/06/01 04:17:49;;;;;;;;;5.75;4.75;;;;;12.83;55.90;100978.41;5129560;27;45005;-82
2022/06/01 04:20:14;;;;;;;;;7.25;5.50;;;;;13.02;56.37;101010.63;5129980;27;45210;-83
2022/06/01 04:22:43;;;;;;;;;4.75;4.00;;;;;12.89;55.91;100990.88;5129529;27;45935;-82
2022/06/01 04:25:12;;;;;;;;;3.50;3.50;;;;;13.10;56.06;101032.81;5127657;27;45261;-85
2022/06/01 04:27:38;;;;;;;;;5.25;4.25;;;;;12.23;56.11;100894.03;5129469;27;45076;-85
2022/06/01 04:30:05;;;;;;;;;3.25;3.25;;;;;12.88;55.96;101004.94;5130464;27;45163;-85
2022/06/01 04:32:32;;;;;;;;;4.00;3.75;;;;;12.75;56.10;100987.84;5128960;27;45941;-82
2022/06/01 04:34:58;;;;;;;;;3.50;3.00;;;;;12.98;56.13;101025.47;5128156;27;45289;-84
2022/06/01 04:37:24;;;;;;;;;4.00;4.00;;;;;13.01;55.93;101040.50;5117061;27;45458;-86
2022/06/01 04:39:49;;;;;;;;;3.75;3.75;;;;;12.93;56.33;101026.19;5116367;27;45104;-83
2022/06/01 04:42:15;;;;;;;;;2.25;2.25;;;;;13.02;56.06;101044.91;5110519;27;46129;-84
2022/06/01 04:44:41;;;;;;;;;4.50;4.25;;;;;12.97;56.67;101023.69;5110712;27;45069;-85
2022/06/01 04:47:08;;;;;;;;;3.00;3.00;;;;;12.84;56.78;101000.41;5128423;27;45256;-84
2022/06/01 04:49:33;;;;;;;;;3.00;3.00;;;;;13.15;56.40;101052.31;5127930;27;45185;-82
2022/06/01 04:51:58;;;;;;;;;3.50;3.50;;;;;12.91;56.77;101003.28;5110457;27;45306;-83
2022/06/01 04:54:24;;;;;;;;;4.67;3.67;;;;;13.03;57.15;101031.75;5127536;27;45330;-83
2022/06/01 04:56:49;;;;;;;;;5.00;4.50;;;;;12.97;56.95;101014.88;5113469;27;45150;-85
2022/06/01 04:59:17;;;;;;;;;3.00;3.00;;;;;13.07;56.57;101031.00;5109481;27;44935;-85
2022/06/01 05:01:43;;;;;;;;;5.00;3.00;;;;;13.29;56.39;101064.22;5109067;27;45777;-84
2022/06/01 05:04:08;;;;;;;;;3.00;3.00;;;;;13.32;55.92;101053.75;5120843;27;45532;-85
2022/06/01 05:06:33;;;;;;;;;4.67;4.33;;;;;13.18;56.66;101026.91;5119639;27;45256;-83
2022/06/01 05:08:59;;;;;;;;;6.00;4.00;;;;;13.34;56.63;101045.88;5132024;27;45524;-79
2022/06/01 05:11:25;;;;;;;;;3.75;3.00;;;;;13.27;56.30;101028.06;5112705;27;46161;-82
2022/06/01 05:13:50;;;;;;;;;5.00;5.00;;;;;13.37;56.13;101036.28;5113790;27;45140;-84
2022/06/01 05:16:15;;;;;;;;;4.50;3.75;;;;;13.49;56.23;101040.13;5129828;27;45227;-78
2022/06/01 05:18:41;;;;;;;;;4.00;3.00;;;;;13.66;56.02;101066.16;5133073;27;45225;-83
2022/06/01 05:21:06;;;;;;;;;5.00;4.00;;;;;13.63;55.70;101055.47;5117185;27;45645;-85
2022/06/01 05:23:32;;;;;;;;;3.50;3.50;;;;;13.72;55.61;101057.47;5110039;27;45164;-81
2022/06/01 05:25:57;;;;;;;;;4.00;4.00;;;;;13.86;55.94;101071.97;5125326;27;45186;-84
2022/06/01 05:28:26;;;;;;;;;5.00;4.00;;;;;13.65;56.04;101019.47;5131544;27;45105;-85
2022/06/01 05:31:00;;;;;;;;;4.00;4.00;;;;;13.83;56.06;101040.16;5126807;27;45905;-83
2022/06/01 05:33:26;;;;;;;;;6.50;5.00;;;;;13.93;55.91;101059.78;5128384;27;45684;-85
2022/06/01 05:35:52;;;;;;;;;5.00;4.50;;;;;13.87;55.75;101031.47;5131813;27;45254;-84
2022/06/01 05:38:18;;;;;;;;;3.75;3.75;;;;;13.74;55.95;101010.84;5132776;27;45212;-83
2022/06/01 05:40:43;;;;;;;;;3.00;3.00;;;;;13.86;56.23;101018.22;5130320;27;45612;-81
2022/06/01 05:43:12;;;;;;;;;6.00;6.00;;;;;14.06;56.39;101045.16;5118808;27;45519;-80
2022/06/01 05:45:38;;;;;;;;;4.00;4.00;;;;;14.15;56.23;101048.03;5119814;27;45162;-83
2022/06/01 05:48:06;;;;;;;;;5.75;5.00;;;;;14.19;56.39;101047.25;5123045;27;45332;-85
2022/06/01 05:50:32;;;;;;;;;5.75;5.00;;;;;14.32;56.26;101061.66;5130411;27;45663;-81
2022/06/01 05:52:57;;;;;;;;;6.25;6.25;;;;;14.03;55.92;101005.41;5126795;27;45079;-81
2022/06/01 05:55:22;;;;;;;;;5.50;5.50;;;;;14.15;55.61;101027.78;5128653;27;45339;-82
2022/06/01 05:57:48;;;;;;;;;5.00;5.00;;;;;14.29;55.58;101049.25;5126681;27;44950;-84
2022/06/01 06:00:16;;;;;;;;;5.00;5.00;;;;;14.38;55.50;101060.06;5123798;27;48020;-80
2022/06/01 06:02:42;;;;;;;;;11.00;10.00;;;;;14.23;55.89;101022.66;5120333;27;45528;-80
2022/06/01 06:06:11;;;;;;;;;6.50;6.25;;;;;14.65;56.11;101069.53;5093532;27;45072;-78
2022/06/01 06:07:55;;;;;;;;;3.00;3.00;;;;;14.63;55.64;101056.28;5117502;27;46219;-79
2022/06/01 06:10:20;;;;;;;;;6.25;6.25;;;;;14.56;55.79;101027.00;5116472;27;45928;-79
2022/06/01 06:12:46;;;;;;;;;6.00;6.00;;;;;14.68;55.25;101037.88;5124405;27;45175;-79
2022/06/01 06:15:11;;;;;;;;;5.33;4.33;;;;;14.79;55.25;101036.34;5111027;27;45019;-83
2022/06/01 06:17:36;;;;;;;;;4.75;4.00;;;;;14.79;54.89;101022.22;5115190;27;45504;-81
2022/06/01 06:20:03;;;;;;;;;4.33;4.00;;;;;14.74;55.00;100992.13;5130843;27;45544;-82
2022/06/01 06:22:28;;;;;;;;;6.75;6.25;;;;;14.90;55.06;101010.13;5125135;27;45595;-78
2022/06/01 06:24:53;;;;;;;;;6.25;6.00;;;;;15.13;55.01;101042.38;5096451;27;46611;-79
2022/06/01 06:27:19;;;;;;;;;4.50;4.25;;;;;15.21;54.55;101035.47;5096579;27;45310;-81
2022/06/01 06:29:45;;;;;;;;;5.50;5.00;;;;;15.31;54.41;101040.06;5119844;27;45937;-82
2022/06/01 06:32:10;;;;;;;;;3.50;3.50;;;;;15.44;54.18;101043.88;5118936;27;45832;-83
2022/06/01 06:34:35;;;;;;;;;3.00;3.00;;;;;15.49;54.76;101045.75;5111819;27;45372;-80
2022/06/01 06:37:01;;;;;;;;;2.75;2.75;;;;;15.48;53.32;101025.41;5113072;27;45507;-84
2022/06/01 06:39:26;;;;;;;;;2.67;2.00;;;;;15.64;52.93;101044.28;5115775;27;45866;-86
2022/06/01 06:41:51;;;;;;;;;2.50;2.50;;;;;15.83;52.32;101078.22;5112747;27;45900;-84
2022/06/01 06:44:17;;;;;;;;;2.75;2.00;;;;;15.89;52.34;101066.81;5115493;27;45732;-82
2022/06/01 06:46:42;;;;;;;;;2.75;2.75;;;;;15.73;51.70;101041.81;5107391;27;45408;-81
2022/06/01 06:49:07;;;;;;;;;2.50;2.50;;;;;15.81;52.11;101053.47;5108601;27;46191;-80
2022/06/01 06:51:33;;;;;;;;;2.00;2.00;;;;;15.77;52.09;101033.06;5098641;27;45643;-82
2022/06/01 06:53:58;;;;;;;;;1.25;1.25;;;;;15.75;51.51;101018.88;5074171;27;45509;-81
2022/06/01 06:56:23;;;;;;;;;2.00;1.00;;;;;16.11;51.45;101068.13;5092733;27;45351;-79
2022/06/01 06:58:49;;;;;;;;;2.75;2.75;;;;;15.94;51.27;101036.88;5093562;27;45643;-81
2022/06/01 07:01:15;;;;;;;;;2.50;2.00;;;;;16.18;50.90;101077.94;5091901;27;45442;-80
2022/06/01 07:03:40;;;;;;;;;3.00;2.00;;;;;16.12;50.75;101067.25;5110118;27;45571;-78
2022/06/01 07:06:17;;;;;;;;;2.75;2.00;;;;;16.02;50.74;101041.44;5111641;27;45069;-83
2022/06/01 07:08:49;;;;;;;;;2.00;2.00;;;;;16.16;50.44;101058.47;5110619;27;46005;-79
2022/06/01 07:11:16;;;;;;;;;2.00;2.00;;;;;16.25;50.44;101061.25;5124697;27;45252;-82
2022/06/01 07:13:42;;;;;;;;;2.00;1.75;;;;;16.18;50.40;101048.78;5108748;27;45470;-81
2022/06/01 07:16:13;;;;;;;;;2.00;2.00;;;;;16.37;50.17;101076.50;5103030;27;45374;-82
2022/06/01 07:18:43;;;;;;;;;1.50;1.25;;;;;16.44;50.08;101075.72;5109563;27;45512;-81
2022/06/01 07:21:09;;;;;;;;;2.75;2.50;;;;;16.56;50.21;101085.66;5107370;27;45732;-80
2022/06/01 07:23:37;;;;;;;;;2.00;1.50;;;;;16.60;49.71;101083.06;5105885;27;45044;-82
2022/06/01 07:26:04;;;;;;;;;2.75;2.50;;;;;16.64;49.95;101086.63;5105460;27;45427;-79
2022/06/01 07:28:30;;;;;;;;;2.00;1.50;;;;;16.57;49.44;101068.84;5104139;27;45325;-81
2022/06/01 07:30:56;;;;;;;;;1.50;1.50;;;;;16.46;49.33;101048.34;5106892;27;45081;-88
2022/06/01 07:33:24;;;;;;;;;3.00;2.00;;;;;16.69;48.85;101093.78;5129139;27;45281;-81
2022/06/01 07:35:49;;;;;;;;;2.25;2.25;;;;;16.51;49.00;101046.66;5125597;27;45568;-83
2022/06/01 07:43:43;;;;;;;;;2.00;2.00;;;;;16.76;49.49;101079.78;5106432;27;45207;-79
2022/06/01 07:46:08;;;;;;;;;3.75;2.25;;;;;16.87;49.48;101087.91;5083102;27;45668;-78
2022/06/01 07:48:34;;;;;;;;;1.50;1.25;;;;;16.92;48.84;101087.97;5124821;27;45804;-78
2022/06/01 07:51:00;;;;;;;;;3.00;3.00;;;;;16.92;49.09;101083.56;5112339;27;45560;-79
2022/06/01 07:53:26;;;;;;;;;2.00;2.00;;;;;16.88;49.16;101073.75;5118536;27;45251;-81
2022/06/01 07:55:51;;;;;;;;;2.00;1.75;;;;;16.98;48.52;101075.66;5094735;27;45560;-78
2022/06/01 07:58:16;;;;;;;;;2.50;2.50;;;;;16.81;48.78;101044.47;5112975;27;45975;-78
2022/06/01 08:00:43;;;;;;;;;3.00;2.50;;;;;16.89;48.45;101056.94;5123200;27;45470;-82
2022/06/01 08:03:13;;;;;;;;;3.00;3.00;;;;;17.11;48.27;101094.44;5119350;27;45343;-80
2022/06/01 08:05:38;;;;;;;;;2.00;2.00;;;;;16.77;48.48;101028.50;5126287;27;45034;-79
2022/06/01 08:08:04;;;;;;;;;2.00;2.00;;;;;16.92;48.48;101041.06;5118760;27;45315;-79
2022/06/01 08:10:29;;;;;;;;;2.50;2.50;;;;;17.14;48.44;101073.22;5117837;27;45124;-80
2022/06/01 08:13:06;;;;;;;;;2.00;2.00;;;;;17.14;48.25;101068.81;5117550;27;45348;-79
2022/06/01 08:15:39;;;;;;;;;1.50;1.50;;;;;17.08;48.22;101059.88;5108974;27;45349;-79
2022/06/01 08:18:04;;;;;;;;;0.75;0.75;;;;;17.16;47.88;101059.09;5109251;27;45260;-78
2022/06/01 08:20:31;;;;;;;;;3.00;3.00;;;;;17.31;47.36;101078.75;5108786;27;45121;-80
2022/06/01 08:22:56;;;;;;;;;2.75;2.75;;;;;17.34;47.09;101090.31;5109311;27;45187;-78
2022/06/01 08:25:24;;;;;;;;;3.00;2.25;;;;;17.29;47.40;101073.44;5101512;27;45515;-82
2022/06/01 08:27:50;;;;;;;;;2.25;2.25;;;;;17.32;47.58;101081.44;5129500;27;45917;-79
2022/06/01 08:30:19;;;;;;;;;2.00;2.00;;;;;17.36;47.00;101080.59;5129572;27;45635;-78
2022/06/01 08:32:45;;;;;;;;;2.00;2.00;;;;;17.27;47.03;101067.19;5130170;27;44980;-79
2022/06/01 08:35:13;;;;;;;;;2.00;2.00;;;;;17.43;47.15;101079.78;5130714;27;45083;-78
2022/06/01 08:37:38;;;;;;;;;4.00;3.00;;;;;17.36;47.50;101062.00;5132734;27;46159;-79
2022/06/01 08:40:05;;;;;;;;;2.00;2.00;;;;;17.48;47.91;101074.53;5128316;27;45202;-79
2022/06/01 08:42:32;;;;;;;;;2.00;2.00;;;;;17.56;47.75;101078.19;5115494;27;45298;-82
2022/06/01 08:45:06;;;;;;;;;2.00;2.00;;;;;17.52;47.45;101057.75;5113371;27;45648;-80
2022/06/01 08:47:35;;;;;;;;;2.00;2.00;;;;;17.68;47.92;101072.09;5120720;27;45264;-79
2022/06/01 08:50:05;;;;;;;;;3.75;3.00;;;;;17.71;47.46;101061.50;5112799;27;45044;-79
2022/06/01 08:52:31;;;;;;;;;2.00;2.00;;;;;17.75;45.93;101066.00;5112004;27;45123;-80
2022/06/01 08:54:56;;;;;;;;;2.00;2.00;;;;;17.80;45.72;101072.28;5094610;27;45098;-81
2022/06/01 08:57:25;;;;;;;;;0.00;0.00;;;;;17.73;45.75;101059.78;5112562;27;45455;-80
2022/06/01 09:00:00;;;;;;;;;2.00;2.00;;;;;17.92;45.80;101088.34;5111569;27;45595;-79
2022/06/01 09:02:55;;;;;;;;;2.50;2.50;;;;;17.96;45.54;101092.81;5112359;27;45217;-80
2022/06/01 09:05:23;;;;;;;;;3.75;3.75;;;;;18.01;45.35;101095.53;5112315;27;45193;-80
2022/06/01 09:07:58;;;;;;;;;2.00;2.00;;;;;18.03;45.49;101094.69;5112600;27;45684;-81
2022/06/01 09:10:41;;;;;;;;;2.50;2.00;;;;;17.99;45.19;101078.66;5122896;27;45236;-79
2022/06/01 09:13:23;;;;;;;;;2.00;2.00;;;;;17.89;44.72;101060.84;5114639;27;45043;-80
2022/06/01 09:15:58;;;;;;;;;2.00;2.00;;;;;18.09;45.19;101093.84;5132688;27;45077;-79
2022/06/01 09:18:28;;;;;;;;;3.50;3.25;;;;;18.11;44.93;101085.88;5114045;27;47061;-79
2022/06/01 09:23:38;;;;;;;;;2.00;2.00;;;;;18.13;44.91;101078.78;5114638;27;45307;-78
2022/06/01 09:26:05;;;;;;;;;2.00;2.00;;;;;18.07;45.37;101054.78;5112195;27;45220;-79
2022/06/01 09:28:38;;;;;;;;;2.25;2.25;;;;;18.31;44.63;101090.47;5111552;27;45764;-78
2022/06/01 09:31:18;;;;;;;;;2.25;2.00;;;;;18.33;44.48;101086.97;5111771;27;45630;-79
2022/06/01 09:33:44;;;;;;;;;2.00;2.00;;;;;18.28;44.93;101076.28;5131318;27;45188;-81
2022/06/01 09:36:10;;;;;;;;;2.25;1.50;;;;;18.48;44.97;101092.41;5132786;27;45234;-79
2022/06/01 09:38:52;;;;;;;;;2.50;2.50;;;;;18.60;44.72;101086.28;5132329;27;45670;-79
2022/06/01 09:41:25;;;;;;;;;2.25;2.25;;;;;18.33;44.29;101023.97;5132720;27;45620;-79
2022/06/01 09:43:56;;;;;;;;;3.25;2.75;;;;;18.70;44.17;101061.53;5113520;27;45318;-79
2022/06/01 09:46:33;;;;;;;;;3.00;3.00;;;;;18.98;44.34;101079.44;5112428;27;45099;-78
2022/06/01 09:49:21;;;;;;;;;3.00;3.00;;;;;18.79;44.42;101021.63;5113155;27;46027;-78
2022/06/01 09:51:51;;;;;;;;;2.50;2.50;;;;;19.13;44.16;101062.66;5123798;27;45417;-78
2022/06/01 09:54:20;;;;;;;;;2.00;2.00;;;;;19.34;44.35;101072.50;5112304;27;45132;-78
2022/06/01 09:56:48;;;;;;;;;2.00;2.00;;;;;19.50;43.75;101081.44;5115107;27;45130;-81
2022/06/01 10:07:46;;;;;;;;;2.00;2.00;;;;;19.92;42.91;101064.69;5127748;27;44972;-81
2022/06/01 10:10:26;;;;;;;;;1.75;1.25;;;;;20.15;42.69;101071.81;5124609;27;46039;-84
2022/06/01 10:12:58;;;;;;;;;2.25;2.25;;;;;20.11;42.84;101033.59;5109411;27;45655;-79
2022/06/01 10:15:30;;;;;;;;;2.25;2.25;;;;;20.31;42.39;101068.28;5110575;27;45123;-82
2022/06/01 10:18:08;;;;;;;;;2.00;2.00;;;;;20.25;41.83;101068.31;5111435;27;45113;-81
2022/06/01 10:20:46;;;;;;;;;3.00;2.50;;;;;20.21;41.23;101074.53;5111126;27;46180;-81
2022/06/01 10:23:22;;;;;;;;;2.50;2.50;;;;;19.98;41.33;101023.78;5111060;27;45630;-79
2022/06/01 10:26:14;;;;;;;;;2.00;1.25;;;;;20.41;41.18;101067.41;5105994;27;45504;-79
2022/06/01 10:28:44;;;;;;;;;2.00;2.00;;;;;20.16;40.35;101014.91;5083329;27;45845;-82
2022/06/01 10:31:28;;;;;;;;;2.50;2.50;;;;;20.48;40.48;101066.53;5099113;27;45419;-81
2022/06/01 10:34:01;;;;;;;;;2.25;2.00;;;;;20.28;40.19;101034.47;5104614;27;45959;-80
2022/06/01 10:36:54;;;;;;;;;3.00;3.00;;;;;20.27;40.69;101005.09;5095139;27;45586;-79
2022/06/01 10:39:29;;;;;;;;;3.00;3.00;;;;;20.44;40.17;101021.97;5095011;27;45465;-79
2022/06/01 10:42:06;;;;;;;;;2.75;2.75;;;;;20.73;40.68;101059.34;5111715;27;46809;-80
2022/06/01 10:44:50;;;;;;;;;2.00;1.25;;;;;20.81;39.98;101029.97;5094955;27;45941;-78
2022/06/01 10:47:33;;;;;;;;;2.00;2.00;;;;;21.07;40.12;101022.72;5099405;27;45583;-79
2022/06/01 10:50:07;;;;;;;;;2.25;2.25;;;;;21.29;39.21;101038.69;5081837;27;45789;-79
2022/06/01 10:52:49;;;;;;;;;2.00;2.00;;;;;21.26;39.55;101036.91;5102168;27;48775;-80
2022/06/01 10:55:20;;;;;;;;;2.00;2.00;;;;;21.05;38.88;101013.84;5097965;27;46089;-80
2022/06/01 10:57:47;;;;;;;;;3.00;2.25;;;;;21.23;38.77;101030.69;5115420;27;45666;-80
2022/06/01 11:00:20;;;;;;;;;1.50;1.50;;;;;21.04;38.69;101005.84;5099138;27;45791;-82
2022/06/01 11:03:21;;;;;;;;;2.00;1.75;;;;;21.27;39.91;101035.13;5088934;27;47330;-80
2022/06/01 11:05:59;;;;;;;;;1.75;1.75;;;;;21.56;38.57;101033.22;5083566;27;46325;-82
2022/06/01 11:09:03;;;;;;;;;2.00;1.25;;;;;21.84;38.88;101033.06;5092243;27;46006;-78
2022/06/01 11:11:53;;;;;;;;;2.00;2.00;;;;;22.25;38.70;101029.19;5056704;27;45409;-79
2022/06/01 11:14:42;;;;;;;;;3.00;3.00;;;;;22.29;38.52;101010.41;5073377;27;46958;-80
2022/06/01 11:17:24;;;;;;;;;2.00;2.00;;;;;22.13;37.23;101027.50;5075192;27;45650;-78
2022/06/01 11:20:02;;;;;;;;;2.00;2.00;;;;;21.62;38.37;100973.44;5092442;27;45774;-80
2022/06/01 11:22:36;;;;;;;;;2.50;2.00;;;;;21.81;38.64;101022.38;5092023;27;45452;-79
2022/06/01 11:25:08;;;;;;;;;2.00;2.00;;;;;21.63;38.27;100999.31;5073743;27;47563;-80
2022/06/01 11:27:59;;;;;;;;;2.00;2.00;;;;;21.78;37.47;101019.72;5091518;27;45485;-80
2022/06/01 11:30:27;;;;;;;;;2.00;2.00;;;;;21.81;37.71;101023.25;5076074;27;45510;-80
2022/06/01 11:33:00;;;;;;;;;2.00;2.00;;;;;21.86;37.29;101017.88;5105576;27;45722;-80
2022/06/01 11:35:34;;;;;;;;;2.75;2.75;;;;;21.80;37.03;101009.88;5090099;27;49115;-82
2022/06/01 11:38:49;;;;;;;;;2.00;2.00;;;;;21.86;37.04;101004.47;5097377;27;45520;-80
2022/06/01 11:41:23;;;;;;;;;2.00;2.00;;;;;22.12;36.55;100999.84;5093268;27;45036;-82
2022/06/01 11:43:59;;;;;;;;;1.00;1.00;;;;;21.95;36.89;100947.34;5073768;27;45335;-82
2022/06/01 11:46:35;;;;;;;;;2.00;2.00;;;;;22.17;36.14;101017.66;5091250;27;46431;-80
2022/06/01 11:49:09;;;;;;;;;2.00;2.00;;;;;21.91;37.38;101016.03;5073553;27;45810;-81
2022/06/01 11:51:37;;;;;;;;;2.00;2.00;;;;;21.84;37.12;101017.00;5091875;27;45558;-80
2022/06/01 11:54:08;;;;;;;;;1.25;1.25;;;;;21.89;37.81;101013.38;5102095;27;45466;-81
2022/06/01 11:56:49;;;;;;;;;1.25;1.25;;;;;22.03;36.59;101012.41;5109285;27;45939;-84
2022/06/01 11:59:45;;;;;;;;;2.00;2.00;;;;;22.01;36.43;100964.22;5099772;27;45790;-86